Time;durP1;ratioP1;P1;durP2;ratioP2;P2;SDS_P1;SDS_P2;PMS_P1;PMS_P2;Temp;Humidity;BMP_temperature;BMP_pressure;BME280_temperature;BME280_humidity;BME280_pressure;Samples;Min_cycle;Max_cycle;Signal;HPM_P1;HPM_P2
2023/01/02 00:01:31;;;;;;;4.78;2.00;;;10.40;99.90;;;;;;5034520;28;20206;-87
2023/01/02 00:03:57;;;;;;;8.63;2.20;;;10.40;99.90;;;;;;5036273;28;20624;-86
2023/01/02 00:06:23;;;;;;;7.38;2.40;;;10.40;99.90;;;;;;5035161;28;20178;-86
2023/01/02 00:08:49;;;;;;;8.48;2.40;;;10.40;99.90;;;;;;5035161;28;20174;-88
2023/01/02 00:11:15;;;;;;;4.13;2.05;;;10.40;99.90;;;;;;5035216;28;20496;-86
2023/01/02 00:13:41;;;;;;;7.22;2.28;;;10.40;99.90;;;;;;5036294;28;20517;-86
2023/01/02 00:16:07;;;;;;;9.70;2.17;;;10.40;99.90;;;;;;5034964;28;20174;-86
2023/01/02 00:18:33;;;;;;;4.88;1.88;;;10.40;99.90;;;;;;5036020;28;20166;-85
2023/01/02 00:21:05;;;;;;;4.63;2.00;;;10.50;99.90;;;;;;5034995;28;20530;-86
2023/01/02 00:23:31;;;;;;;8.15;2.72;;;10.40;99.90;;;;;;5034776;28;20174;-85
2023/01/02 00:25:57;;;;;;;4.30;2.08;;;10.40;99.90;;;;;;5035115;28;20205;-86
2023/01/02 00:28:22;;;;;;;6.53;2.63;;;10.40;99.90;;;;;;5036059;28;20657;-86
2023/01/02 00:30:48;;;;;;;5.93;1.88;;;10.30;99.90;;;;;;5034921;28;20166;-87
2023/01/02 00:33:14;;;;;;;5.72;2.03;;;10.30;99.90;;;;;;5035796;28;20675;-87
2023/01/02 00:35:40;;;;;;;5.95;2.22;;;10.30;99.90;;;;;;5034909;28;20204;-88
2023/01/02 00:38:06;;;;;;;6.30;2.50;;;10.30;99.90;;;;;;5036053;28;20500;-88
2023/01/02 00:40:32;;;;;;;5.35;2.10;;;10.30;99.90;;;;;;5034943;28;20609;-87
2023/01/02 00:42:58;;;;;;;11.73;2.10;;;10.30;99.90;;;;;;5034646;28;20181;-87
2023/01/02 00:45:23;;;;;;;9.95;2.38;;;10.30;99.90;;;;;;5034754;28;20178;-88
2023/01/02 00:47:50;;;;;;;5.50;1.92;;;10.30;99.90;;;;;;5034243;28;20207;-87
2023/01/02 00:50:16;;;;;;;9.05;2.35;;;10.30;99.90;;;;;;5034544;28;20316;-87
2023/01/02 00:52:42;;;;;;;6.57;2.28;;;10.40;99.90;;;;;;5493314;22;20324;-87
2023/01/02 00:55:08;;;;;;;3.03;1.85;;;10.40;99.90;;;;;;5016396;28;20187;-88
2023/01/02 00:57:34;;;;;;;8.15;2.28;;;10.40;99.90;;;;;;5015040;28;20507;-88
2023/01/02 00:59:59;;;;;;;14.00;2.90;;;10.40;99.90;;;;;;5034623;28;20190;-87
2023/01/02 01:02:25;;;;;;;8.55;2.28;;;10.40;99.90;;;;;;5033899;28;20190;-87
2023/01/02 01:04:51;;;;;;;5.15;2.35;;;10.40;99.90;;;;;;5033755;28;20185;-87
2023/01/02 01:07:17;;;;;;;3.38;2.15;;;10.40;99.90;;;;;;5033907;28;20281;-87
2023/01/02 01:09:42;;;;;;;5.65;2.47;;;10.50;99.90;;;;;;5033895;28;20185;-88
2023/01/02 01:12:08;;;;;;;7.85;2.50;;;10.50;99.90;;;;;;5034278;28;20209;-87
2023/01/02 01:14:34;;;;;;;7.22;2.38;;;10.40;99.90;;;;;;5035226;28;20183;-88
2023/01/02 01:17:00;;;;;;;6.03;2.20;;;10.50;99.90;;;;;;5035593;28;20165;-87
2023/01/02 01:19:33;;;;;;;10.98;2.60;;;10.50;99.90;;;;;;5033832;28;20183;-88
2023/01/02 01:21:59;;;;;;;9.02;2.45;;;10.40;99.90;;;;;;5034917;28;20170;-87
2023/01/02 01:24:25;;;;;;;6.85;2.67;;;10.50;99.90;;;;;;5033879;28;20236;-88
2023/01/02 01:26:51;;;;;;;11.75;2.97;;;10.40;99.90;;;;;;5033955;28;20206;-88
2023/01/02 01:29:16;;;;;;;7.00;2.20;;;10.50;99.90;;;;;;5033914;28;20629;-87
2023/01/02 01:31:42;;;;;;;15.77;3.05;;;10.50;99.90;;;;;;5035008;28;20587;-87
2023/01/02 01:34:11;;;;;;;6.85;2.22;;;10.50;99.90;;;;;;5033618;28;20273;-88
2023/01/02 01:36:37;;;;;;;5.78;2.25;;;10.60;99.90;;;;;;5033497;28;20174;-87
2023/01/02 01:39:03;;;;;;;11.00;2.63;;;10.70;99.90;;;;;;5033811;28;20531;-88
2023/01/02 01:41:28;;;;;;;7.80;2.20;;;10.70;99.90;;;;;;5033605;28;20258;-87
2023/01/02 01:44:00;;;;;;;7.80;2.40;;;10.80;99.90;;;;;;5034764;28;20609;-88
2023/01/02 01:46:37;;;;;;;6.07;2.22;;;10.80;99.90;;;;;;5033468;28;20597;-87
2023/01/02 01:49:25;;;;;;;5.22;2.35;;;10.90;99.90;;;;;;5033133;28;20213;-88
2023/01/02 01:51:59;;;;;;;8.88;2.55;;;10.80;99.90;;;;;;5033378;28;20201;-87
2023/01/02 01:54:39;;;;;;;5.95;2.58;;;10.90;99.90;;;;;;5033573;28;20230;-87
2023/01/02 01:57:14;;;;;;;7.85;2.30;;;11.00;99.90;;;;;;5033199;28;20186;-87
2023/01/02 01:59:40;;;;;;;6.15;2.17;;;11.10;99.90;;;;;;5033484;28;20205;-87
2023/01/02 02:02:06;;;;;;;5.90;2.15;;;11.20;99.90;;;;;;5033172;28;20264;-87
2023/01/02 02:04:32;;;;;;;7.28;2.45;;;11.20;99.90;;;;;;5033181;28;20178;-87
2023/01/02 02:06:58;;;;;;;7.97;2.10;;;11.10;99.90;;;;;;5034410;28;20205;-87
2023/01/02 02:09:33;;;;;;;13.73;2.38;;;11.10;99.90;;;;;;5033200;28;20179;-87
2023/01/02 02:11:59;;;;;;;12.48;2.90;;;11.10;99.90;;;;;;5034558;28;20169;-87
2023/01/02 02:14:25;;;;;;;5.68;1.88;;;11.10;99.90;;;;;;5031575;28;20612;-86
2023/01/02 02:17:03;;;;;;;6.90;2.05;;;11.10;99.90;;;;;;5032460;28;20176;-86
2023/01/02 02:19:52;;;;;;;6.07;2.53;;;11.10;99.90;;;;;;5033407;28;20174;-86
2023/01/02 02:22:39;;;;;;;6.90;1.88;;;11.10;99.90;;;;;;5048732;28;20181;-87
2023/01/02 02:25:32;;;;;;;8.95;2.20;;;11.10;99.90;;;;;;5034184;28;20166;-87
2023/01/02 02:28:18;;;;;;;8.10;2.65;;;11.10;99.90;;;;;;5032882;28;20202;-87
2023/01/02 02:31:02;;;;;;;10.65;2.40;;;11.10;99.90;;;;;;5049633;28;20166;-86
2023/01/02 02:33:43;;;;;;;8.75;2.08;;;11.20;99.90;;;;;;5049330;28;20186;-86
2023/01/02 02:36:36;;;;;;;8.38;2.72;;;11.20;99.90;;;;;;5032724;28;20280;-85
2023/01/02 02:39:21;;;;;;;10.40;2.20;;;11.20;99.90;;;;;;5049283;28;20269;-86
2023/01/02 02:42:14;;;;;;;7.90;2.17;;;11.30;99.90;;;;;;5049623;28;20493;-86
2023/01/02 02:45:02;;;;;;;7.97;2.13;;;11.30;99.90;;;;;;5032599;28;20189;-86
2023/01/02 02:47:36;;;;;;;8.32;2.50;;;11.30;99.90;;;;;;5032577;28;20210;-87
2023/01/02 02:50:26;;;;;;;11.95;2.20;;;11.20;99.90;;;;;;5034232;28;20166;-87
2023/01/02 02:53:03;;;;;;;7.57;2.40;;;11.20;99.90;;;;;;5033793;28;20249;-86
2023/01/02 02:55:37;;;;;;;9.85;2.40;;;11.20;99.90;;;;;;5032768;28;20182;-88
2023/01/02 02:58:03;;;;;;;6.53;2.08;;;11.10;99.90;;;;;;5032744;28;20257;-86
2023/01/02 03:00:28;;;;;;;7.32;2.25;;;11.10;99.90;;;;;;5033989;28;20261;-87
2023/01/02 03:02:54;;;;;;;7.78;2.42;;;11.10;99.90;;;;;;5033386;28;20186;-86
2023/01/02 03:05:40;;;;;;;8.15;2.53;;;11.10;99.90;;;;;;5033714;28;20225;-86
2023/01/02 03:08:12;;;;;;;8.32;2.38;;;11.20;99.90;;;;;;5033415;28;20198;-87
2023/01/02 03:10:48;;;;;;;6.35;2.25;;;11.20;99.90;;;;;;5032549;28;20246;-88
2023/01/02 03:13:44;;;;;;;5.82;2.38;;;11.30;99.90;;;;;;5032395;28;20186;-86
2023/01/02 03:16:29;;;;;;;8.95;2.25;;;11.40;99.90;;;;;;5033463;28;20167;-86
2023/01/02 03:19:04;;;;;;;7.72;2.30;;;11.50;99.90;;;;;;5031933;28;20232;-86
2023/01/02 03:21:40;;;;;;;9.23;2.38;;;11.60;99.90;;;;;;5032223;28;20186;-86
2023/01/02 03:24:11;;;;;;;7.20;2.30;;;11.60;99.90;;;;;;5033694;28;20205;-84
2023/01/02 03:26:39;;;;;;;5.13;2.10;;;11.60;99.90;;;;;;5031999;28;20174;-85
2023/01/02 03:29:15;;;;;;;8.07;2.42;;;11.70;99.90;;;;;;5032134;28;20273;-86
2023/01/02 03:31:47;;;;;;;6.75;2.97;;;11.80;99.90;;;;;;5032050;28;20174;-86
2023/01/02 03:34:16;;;;;;;6.28;2.25;;;11.80;99.90;;;;;;5035509;28;20189;-86
2023/01/02 03:36:47;;;;;;;8.48;2.50;;;11.90;99.90;;;;;;5037002;28;20500;-86
2023/01/02 03:39:19;;;;;;;9.40;2.63;;;12.00;99.90;;;;;;5035635;28;20187;-85
2023/01/02 03:42:02;;;;;;;6.82;2.70;;;12.10;99.90;;;;;;5036954;28;20287;-86
2023/01/02 03:44:36;;;;;;;5.70;2.30;;;12.10;99.90;;;;;;5036792;28;20593;-86
2023/01/02 03:47:22;;;;;;;6.32;2.17;;;12.30;99.90;;;;;;5036863;28;20198;-84
2023/01/02 03:49:53;;;;;;;7.07;2.20;;;12.30;99.90;;;;;;5035705;28;20605;-84
2023/01/02 03:52:18;;;;;;;7.32;2.00;;;12.60;99.90;;;;;;5036651;28;20730;-86
2023/01/02 03:54:44;;;;;;;8.68;2.15;;;12.60;99.90;;;;;;5035339;28;20178;-87
2023/01/02 03:57:51;;;;;;;6.70;2.53;;;12.60;99.90;;;;;;5036692;28;20162;-85
2023/01/02 04:00:19;;;;;;;8.57;1.95;;;12.70;99.90;;;;;;5034846;28;20190;-84
2023/01/02 04:03:02;;;;;;;5.43;1.83;;;12.70;99.90;;;;;;5035319;28;20193;-85
2023/01/02 04:05:31;;;;;;;5.80;2.05;;;12.70;99.90;;;;;;5035448;28;20281;-85
2023/01/02 04:08:04;;;;;;;9.07;2.25;;;12.80;99.90;;;;;;5035277;28;20206;-88
2023/01/02 04:10:31;;;;;;;7.18;2.10;;;12.90;99.90;;;;;;5034992;28;20178;-85
2023/01/02 04:13:02;;;;;;;4.65;2.00;;;12.90;99.90;;;;;;5035043;28;20179;-86
2023/01/02 04:15:32;;;;;;;6.25;2.25;;;12.90;99.90;;;;;;5035091;28;20265;-86
2023/01/02 04:18:07;;;;;;;8.20;2.40;;;12.90;99.90;;;;;;5051500;28;20181;-86
2023/01/02 04:20:39;;;;;;;7.75;2.42;;;13.00;99.90;;;;;;5035180;28;20166;-86
2023/01/02 04:23:15;;;;;;;11.30;2.83;;;13.00;99.90;;;;;;5035054;28;20872;-88
2023/01/02 04:25:53;;;;;;;5.43;3.00;;;13.00;99.90;;;;;;5035125;28;20253;-85
2023/01/02 04:28:31;;;;;;;8.05;2.42;;;13.00;99.90;;;;;;5034915;28;20210;-85
2023/01/02 04:31:46;;;;;;;6.13;2.63;;;13.00;99.90;;;;;;5035025;28;20178;-85
2023/01/02 04:34:14;;;;;;;9.40;2.42;;;13.10;99.90;;;;;;5021210;28;20190;-86
2023/01/02 04:36:40;;;;;;;6.35;2.00;;;13.10;99.90;;;;;;5034646;28;20170;-85
2023/01/02 04:39:07;;;;;;;8.45;2.30;;;13.10;99.90;;;;;;5034853;28;20171;-86
2023/01/02 04:41:34;;;;;;;6.18;2.40;;;13.10;99.90;;;;;;5035878;28;20171;-87
2023/01/02 04:43:59;;;;;;;10.60;2.47;;;13.00;99.90;;;;;;5035017;28;20171;-87
2023/01/02 04:46:27;;;;;;;7.38;2.10;;;13.10;99.90;;;;;;5034790;28;20366;-87
2023/01/02 04:48:54;;;;;;;9.60;2.08;;;13.10;99.90;;;;;;5035466;28;20213;-88
2023/01/02 04:51:20;;;;;;;7.60;2.38;;;13.20;99.90;;;;;;5034619;28;20182;-86
2023/01/02 04:53:50;;;;;;;4.22;2.13;;;13.20;99.90;;;;;;5035548;28;20681;-86
2023/01/02 04:56:17;;;;;;;5.30;2.00;;;13.10;99.90;;;;;;5035683;28;20297;-86
2023/01/02 04:58:44;;;;;;;4.68;1.77;;;13.10;99.90;;;;;;5034760;28;20629;-87
2023/01/02 05:01:12;;;;;;;11.77;2.45;;;13.10;99.90;;;;;;5035750;28;20174;-86
2023/01/02 05:03:43;;;;;;;7.55;2.00;;;13.20;99.90;;;;;;5033994;28;20197;-88
2023/01/02 05:06:09;;;;;;;8.27;2.60;;;13.20;99.90;;;;;;5035538;28;20175;-86
2023/01/02 05:08:36;;;;;;;6.05;1.88;;;13.20;99.90;;;;;;5050873;28;20213;-87
2023/01/02 05:11:10;;;;;;;7.88;2.25;;;13.20;99.90;;;;;;5032271;28;20613;-88
2023/01/02 05:13:36;;;;;;;4.55;2.25;;;13.20;99.90;;;;;;5032474;28;20166;-86
2023/01/02 05:16:02;;;;;;;5.90;2.00;;;13.20;99.90;;;;;;5033022;28;20637;-85
2023/01/02 05:18:29;;;;;;;7.75;2.00;;;13.20;99.90;;;;;;5034358;28;20175;-87
2023/01/02 05:21:02;;;;;;;8.10;2.08;;;13.20;99.90;;;;;;5034002;28;20551;-85
2023/01/02 05:26:12;;;;;;;6.28;2.13;;;13.20;99.90;;;;;;5035327;28;20170;-86
2023/01/02 05:28:38;;;;;;;7.90;2.20;;;13.20;99.90;;;;;;5035114;28;20699;-88
2023/01/02 05:31:04;;;;;;;7.97;2.03;;;13.10;99.90;;;;;;5034214;28;20732;-87
2023/01/02 05:33:30;;;;;;;8.98;2.35;;;13.20;99.90;;;;;;5034626;28;20244;-86
2023/01/02 05:35:55;;;;;;;9.63;2.30;;;13.20;99.90;;;;;;5034732;28;20171;-86
2023/01/02 05:38:21;;;;;;;8.40;2.95;;;13.20;99.90;;;;;;5034939;28;20175;-88
2023/01/02 05:40:47;;;;;;;10.55;2.40;;;13.20;99.90;;;;;;5034839;28;20170;-86
2023/01/02 05:43:12;;;;;;;11.18;2.75;;;13.30;99.90;;;;;;5033396;28;20629;-89
2023/01/02 05:45:38;;;;;;;9.60;2.03;;;13.30;99.90;;;;;;5035403;28;20174;-87
2023/01/02 05:48:04;;;;;;;5.40;1.70;;;13.40;99.90;;;;;;5033540;28;20218;-88
2023/01/02 05:50:29;;;;;;;9.75;1.92;;;13.40;99.90;;;;;;5034638;28;20605;-90
2023/01/02 05:52:55;;;;;;;9.35;1.98;;;13.40;99.90;;;;;;5033067;28;20284;-86
2023/01/02 05:55:21;;;;;;;5.82;2.17;;;13.30;99.90;;;;;;5033316;28;20217;-86
2023/01/02 05:57:47;;;;;;;10.70;1.80;;;13.20;99.90;;;;;;5033244;28;20213;-87
2023/01/02 06:00:13;;;;;;;8.00;2.05;;;13.20;99.90;;;;;;5033326;28;20171;-87
2023/01/02 06:02:39;;;;;;;6.70;2.20;;;13.30;99.90;;;;;;5032704;28;20190;-87
2023/01/02 06:05:05;;;;;;;11.38;2.10;;;13.20;99.90;;;;;;5033819;28;20189;-87
2023/01/02 06:07:30;;;;;;;9.93;2.08;;;13.20;99.90;;;;;;5033107;28;20213;-88
2023/01/02 06:09:57;;;;;;;8.30;2.20;;;13.30;99.90;;;;;;5033202;28;20523;-86
2023/01/02 06:12:23;;;;;;;11.75;2.38;;;13.30;99.90;;;;;;5033396;28;20184;-85
2023/01/02 06:14:48;;;;;;;5.28;2.10;;;13.20;99.90;;;;;;5032743;28;20261;-88
2023/01/02 06:17:14;;;;;;;8.05;1.90;;;13.30;99.90;;;;;;5032738;28;20178;-87
2023/01/02 06:19:40;;;;;;;6.32;2.17;;;13.30;99.90;;;;;;5034201;28;20506;-89
2023/01/02 06:22:05;;;;;;;11.55;2.17;;;13.30;99.90;;;;;;5033014;28;20712;-87
2023/01/02 06:24:31;;;;;;;6.70;2.05;;;13.40;99.90;;;;;;5034306;28;20175;-86
2023/01/02 06:26:57;;;;;;;7.40;2.30;;;13.40;99.90;;;;;;5032863;28;20207;-87
2023/01/02 06:29:22;;;;;;;8.07;2.40;;;13.40;99.90;;;;;;5033094;28;20563;-86
2023/01/02 06:31:48;;;;;;;7.63;2.72;;;13.40;99.90;;;;;;5033264;28;20600;-88
2023/01/02 06:34:16;;;;;;;6.82;2.63;;;13.30;99.90;;;;;;5049091;28;20186;-86
2023/01/02 06:36:42;;;;;;;9.25;2.85;;;13.30;99.90;;;;;;5023366;28;20514;-86
2023/01/02 06:39:07;;;;;;;7.20;3.17;;;13.30;99.90;;;;;;5014895;28;20174;-87
2023/01/02 06:41:33;;;;;;;14.43;3.15;;;13.30;99.90;;;;;;5013271;28;20571;-88
2023/01/02 06:43:59;;;;;;;13.65;3.03;;;13.30;99.90;;;;;;5013062;28;20183;-87
2023/01/02 06:46:25;;;;;;;8.60;3.03;;;13.30;99.90;;;;;;5012924;28;20206;-88
2023/01/02 06:48:50;;;;;;;11.32;2.60;;;13.30;99.90;;;;;;5012420;28;20261;-87
2023/01/02 06:51:21;;;;;;;8.13;2.55;;;13.30;99.90;;;;;;5029431;28;20632;-87
2023/01/02 06:53:47;;;;;;;7.72;2.78;;;13.30;99.90;;;;;;5028335;28;20240;-87
2023/01/02 06:56:16;;;;;;;8.10;2.22;;;13.20;99.90;;;;;;5032051;28;20178;-88
2023/01/02 06:58:42;;;;;;;11.02;2.22;;;13.20;99.90;;;;;;5035551;28;20674;-88
2023/01/02 07:01:11;;;;;;;5.72;2.83;;;13.20;99.90;;;;;;5052598;28;20220;-88
2023/01/02 07:03:36;;;;;;;9.27;2.28;;;13.20;99.90;;;;;;5033576;28;20187;-86
2023/01/02 07:06:07;;;;;;;8.27;2.13;;;13.20;99.90;;;;;;5030167;28;20221;-86
2023/01/02 07:08:33;;;;;;;10.63;2.33;;;13.20;99.90;;;;;;5033326;28;20612;-88
2023/01/02 07:11:09;;;;;;;9.00;2.55;;;13.20;99.90;;;;;;5035928;28;20176;-87
2023/01/02 07:13:35;;;;;;;5.60;2.10;;;13.20;99.90;;;;;;5036389;28;20182;-89
2023/01/02 07:16:05;;;;;;;7.80;2.08;;;13.20;99.90;;;;;;5036097;28;20522;-87
2023/01/02 07:18:32;;;;;;;5.78;2.22;;;13.20;99.90;;;;;;5036412;28;20253;-85
2023/01/02 07:20:58;;;;;;;4.85;2.10;;;13.30;99.90;;;;;;5037744;28;20178;-86
2023/01/02 07:23:23;;;;;;;6.25;1.70;;;13.30;99.90;;;;;;5049432;28;20630;-86
2023/01/02 07:25:57;;;;;;;8.05;2.40;;;13.40;99.90;;;;;;5056755;28;20182;-88
2023/01/02 07:28:23;;;;;;;8.90;2.28;;;13.40;99.90;;;;;;5047818;28;20236;-86
2023/01/02 07:30:50;;;;;;;8.00;2.10;;;13.40;99.90;;;;;;5040502;28;20255;-87
2023/01/02 07:33:16;;;;;;;6.00;2.30;;;13.40;99.90;;;;;;5036622;28;20190;-87
2023/01/02 07:35:43;;;;;;;7.13;1.80;;;13.40;99.90;;;;;;5039403;28;20516;-86
2023/01/02 07:38:11;;;;;;;5.22;1.95;;;13.30;99.90;;;;;;5046358;28;20185;-92
2023/01/02 07:40:38;;;;;;;5.78;1.98;;;13.30;99.90;;;;;;5045868;28;20170;-84
2023/01/02 07:43:05;;;;;;;5.30;2.13;;;13.30;99.90;;;;;;5040636;28;20171;-90
2023/01/02 07:45:33;;;;;;;6.72;2.40;;;13.30;99.90;;;;;;5046078;28;20193;-85
2023/01/02 07:48:01;;;;;;;12.45;2.33;;;13.30;99.90;;;;;;5048459;28;20279;-89
2023/01/02 07:50:26;;;;;;;8.65;1.98;;;13.40;99.90;;;;;;5047953;28;20575;-86
2023/01/02 07:52:52;;;;;;;11.80;2.88;;;13.20;99.90;;;;;;5057318;28;20245;-90
2023/01/02 07:55:18;;;;;;;10.35;2.00;;;13.30;99.90;;;;;;5055913;28;20218;-86
2023/01/02 07:57:45;;;;;;;9.05;1.98;;;13.30;99.90;;;;;;5053895;28;20601;-86
2023/01/02 08:00:11;;;;;;;11.80;2.20;;;13.30;99.90;;;;;;5055586;28;20580;-90
2023/01/02 08:02:37;;;;;;;6.03;1.83;;;13.20;99.90;;;;;;5045628;28;20186;-89
2023/01/02 08:05:03;;;;;;;3.88;1.52;;;13.20;99.90;;;;;;5034550;28;20687;-88
2023/01/02 08:07:28;;;;;;;10.10;1.85;;;13.10;99.90;;;;;;5034970;28;20238;-87
2023/01/02 08:09:54;;;;;;;4.68;1.85;;;13.10;99.90;;;;;;5034819;28;20206;-85
2023/01/02 08:12:20;;;;;;;12.07;2.53;;;13.10;99.90;;;;;;5035910;28;20212;-85
2023/01/02 08:14:45;;;;;;;5.82;1.90;;;13.10;99.90;;;;;;5036930;28;20277;-85
2023/01/02 08:17:11;;;;;;;6.13;1.77;;;13.00;99.90;;;;;;5035579;28;20519;-86
2023/01/02 08:19:37;;;;;;;5.85;2.15;;;13.10;99.90;;;;;;5034089;28;20209;-89
2023/01/02 08:22:03;;;;;;;7.15;2.10;;;13.10;99.90;;;;;;5036893;28;20170;-89
2023/01/02 08:24:29;;;;;;;9.93;2.17;;;13.10;99.90;;;;;;5035649;28;20196;-91
2023/01/02 08:26:55;;;;;;;11.30;2.20;;;13.20;99.90;;;;;;5035420;28;20178;-87
2023/01/02 08:29:20;;;;;;;13.82;2.25;;;13.20;99.90;;;;;;5035292;28;20606;-85
2023/01/02 08:31:46;;;;;;;7.63;2.08;;;13.10;99.90;;;;;;5036654;28;20186;-90
2023/01/02 08:34:13;;;;;;;7.75;1.85;;;13.10;99.90;;;;;;5036396;28;20175;-86
2023/01/02 08:36:40;;;;;;;7.72;2.13;;;13.10;99.90;;;;;;5034941;28;20182;-86
2023/01/02 08:39:05;;;;;;;16.25;2.13;;;13.00;99.90;;;;;;5035332;28;20171;-90
2023/01/02 08:41:36;;;;;;;9.18;2.35;;;13.10;99.90;;;;;;5035926;28;20185;-87
2023/01/02 08:44:02;;;;;;;10.00;1.98;;;13.00;99.90;;;;;;5035122;28;20510;-87
2023/01/02 08:46:29;;;;;;;6.72;1.63;;;13.00;99.90;;;;;;5036236;28;20204;-88
2023/01/02 08:48:55;;;;;;;9.63;2.05;;;13.00;99.90;;;;;;5034534;28;20225;-93
2023/01/02 08:51:21;;;;;;;8.68;2.20;;;13.00;99.90;;;;;;5036236;28;20234;-85
2023/01/02 08:53:47;;;;;;;8.80;1.77;;;13.10;99.90;;;;;;5034373;28;20262;-84
2023/01/02 08:56:28;;;;;;;8.10;2.03;;;13.10;99.90;;;;;;5034695;28;20213;-85
2023/01/02 08:58:55;;;;;;;13.30;2.53;;;13.10;99.90;;;;;;5034637;28;20188;-88
2023/01/02 09:01:22;;;;;;;9.93;2.45;;;13.10;99.90;;;;;;5034744;28;20189;-86
2023/01/02 09:03:48;;;;;;;10.57;2.30;;;13.10;99.90;;;;;;5033585;28;20204;-86
2023/01/02 09:06:14;;;;;;;4.13;1.48;;;13.20;99.90;;;;;;5034285;28;20178;-87
2023/01/02 09:08:40;;;;;;;7.63;2.25;;;13.20;99.90;;;;;;5035519;28;20207;-84
2023/01/02 09:11:17;;;;;;;7.45;2.30;;;13.20;99.90;;;;;;5034253;28;20174;-85
2023/01/02 09:13:43;;;;;;;9.48;2.25;;;13.20;99.90;;;;;;5034501;28;20269;-88
2023/01/02 09:16:10;;;;;;;8.18;2.15;;;13.20;99.90;;;;;;5034156;28;20632;-86
2023/01/02 09:18:37;;;;;;;7.75;2.45;;;13.30;99.90;;;;;;5033795;28;20178;-85
2023/01/02 09:21:03;;;;;;;15.05;2.13;;;13.20;99.90;;;;;;5033255;28;20543;-87
2023/01/02 09:23:30;;;;;;;5.22;1.77;;;13.20;99.90;;;;;;5050794;28;20182;-95
2023/01/02 09:26:00;;;;;;;7.28;2.05;;;13.20;99.90;;;;;;5034013;28;20174;-84
2023/01/02 09:28:30;;;;;;;13.52;2.50;;;13.20;99.90;;;;;;5035133;28;20652;-85
2023/01/02 09:30:55;;;;;;;5.85;1.77;;;13.10;99.90;;;;;;5033371;28;20178;-86
2023/01/02 09:33:21;;;;;;;8.88;2.33;;;13.10;99.90;;;;;;5033339;28;20178;-85
2023/01/02 09:35:47;;;;;;;6.57;2.15;;;13.10;99.90;;;;;;5034803;28;20183;-87
2023/01/02 09:38:13;;;;;;;8.23;2.25;;;13.10;99.90;;;;;;5033737;28;20185;-85
2023/01/02 09:40:47;;;;;;;8.32;2.15;;;13.20;99.90;;;;;;5033741;28;20174;-87
2023/01/02 09:43:15;;;;;;;7.90;1.77;;;13.20;99.90;;;;;;5033783;28;20178;-87
2023/01/02 09:45:43;;;;;;;7.70;1.90;;;13.20;99.90;;;;;;5033839;28;20178;-85
2023/01/02 09:48:16;;;;;;;6.05;1.50;;;13.20;99.90;;;;;;5049745;28;20206;-88
2023/01/02 09:50:45;;;;;;;6.57;1.90;;;13.20;99.90;;;;;;5033617;28;20170;-84
2023/01/02 09:53:13;;;;;;;6.05;1.70;;;13.20;99.90;;;;;;5033176;28;20266;-86
2023/01/02 09:55:54;;;;;;;5.80;2.08;;;13.30;99.90;;;;;;5034938;28;20174;-87
2023/01/02 09:58:31;;;;;;;6.72;1.80;;;13.30;99.90;;;;;;5034017;28;20680;-88
2023/01/02 10:00:58;;;;;;;10.15;1.83;;;13.30;99.90;;;;;;5050425;28;20316;-85
2023/01/02 10:04:07;;;;;;;10.23;1.98;;;13.30;99.90;;;;;;5034296;28;20695;-84
2023/01/02 10:07:13;;;;;;;7.53;1.77;;;13.40;99.90;;;;;;5032813;28;20187;-83
2023/01/02 10:10:00;;;;;;;9.65;1.88;;;13.40;99.90;;;;;;5032219;28;20641;-91
2023/01/02 10:12:58;;;;;;;9.02;2.10;;;13.50;99.90;;;;;;5033414;28;20278;-86
2023/01/02 10:15:27;;;;;;;5.78;1.90;;;13.60;99.90;;;;;;5049565;28;20177;-87
2023/01/02 10:18:14;;;;;;;6.80;1.80;;;13.60;99.90;;;;;;5032949;28;20185;-86
2023/01/02 10:20:43;;;;;;;3.50;1.80;;;13.60;99.90;;;;;;5034168;28;20178;-85
2023/01/02 10:23:17;;;;;;;9.02;1.85;;;13.50;99.90;;;;;;5032750;28;20191;-85
2023/01/02 10:26:12;;;;;;;8.50;1.42;;;13.50;99.90;;;;;;5032686;28;20178;-84
2023/01/02 10:28:56;;;;;;;7.10;1.80;;;13.60;99.90;;;;;;5034558;28;20229;-86
2023/01/02 10:31:45;;;;;;;5.78;1.85;;;13.70;99.90;;;;;;5032831;28;20259;-83
2023/01/02 10:34:17;;;;;;;8.73;1.73;;;13.70;99.90;;;;;;5033565;28;20245;-84
2023/01/02 10:36:45;;;;;;;7.93;2.17;;;13.70;99.90;;;;;;5033902;28;20170;-86
2023/01/02 10:39:17;;;;;;;6.35;2.00;;;13.70;99.90;;;;;;5032705;28;20174;-83
2023/01/02 10:41:46;;;;;;;6.72;1.90;;;13.70;99.90;;;;;;5032124;28;20174;-84
2023/01/02 10:44:15;;;;;;;6.30;1.58;;;13.80;99.90;;;;;;5032317;28;20174;-85
2023/01/02 10:46:41;;;;;;;5.60;1.70;;;13.80;99.90;;;;;;5033535;28;20232;-85
2023/01/02 10:49:09;;;;;;;5.00;1.52;;;13.70;99.90;;;;;;5033447;28;20240;-85
2023/01/02 10:51:45;;;;;;;5.68;1.77;;;13.80;99.90;;;;;;5032562;28;20185;-84
2023/01/02 10:54:11;;;;;;;8.60;1.83;;;13.80;99.90;;;;;;5048979;28;20218;-85
2023/01/02 10:56:39;;;;;;;5.15;1.65;;;13.80;99.90;;;;;;5032351;28;20641;-84
2023/01/02 10:59:34;;;;;;;4.68;1.67;;;13.80;99.90;;;;;;5033720;28;20170;-89
2023/01/02 11:02:00;;;;;;;14.25;1.95;;;13.70;99.90;;;;;;5036793;28;20194;-90
2023/01/02 11:04:28;;;;;;;5.30;1.80;;;13.80;99.90;;;;;;5032385;28;20612;-85
2023/01/02 11:07:00;;;;;;;6.10;1.80;;;13.70;99.90;;;;;;5032115;28;20613;-85
2023/01/02 11:09:31;;;;;;;6.07;2.25;;;13.70;99.90;;;;;;5033512;28;20541;-85
2023/01/02 11:12:07;;;;;;;10.43;1.63;;;13.70;99.90;;;;;;5033644;28;20529;-85
2023/01/02 11:14:34;;;;;;;8.00;1.60;;;13.70;99.90;;;;;;5032274;28;20193;-84
2023/01/02 11:17:20;;;;;;;4.38;1.58;;;13.80;99.90;;;;;;5032406;28;20201;-86
2023/01/02 11:19:52;;;;;;;4.45;1.38;;;13.80;99.90;;;;;;5033422;28;20261;-87
2023/01/02 11:22:30;;;;;;;6.68;1.52;;;13.80;99.90;;;;;;5033243;28;20174;-85
2023/01/02 11:25:02;;;;;;;7.10;1.25;;;13.70;99.90;;;;;;5033841;28;20170;-85
2023/01/02 11:27:30;;;;;;;4.32;1.23;;;13.70;99.90;;;;;;5032707;28;20530;-85
2023/01/02 11:29:56;;;;;;;5.15;1.60;;;13.70;99.90;;;;;;5049223;28;20190;-83
2023/01/02 11:32:26;;;;;;;6.28;1.75;;;13.70;99.90;;;;;;5033467;28;20278;-84
2023/01/02 11:35:01;;;;;;;5.22;1.55;;;13.60;99.90;;;;;;5034069;28;20170;-85
2023/01/02 11:37:28;;;;;;;8.15;1.55;;;13.50;99.90;;;;;;5032637;28;20237;-89
2023/01/02 11:40:02;;;;;;;10.35;1.67;;;13.50;99.90;;;;;;5032370;28;20185;-89
2023/01/02 11:45:24;;;;;;;10.23;1.48;;;13.20;99.90;;;;;;5034125;28;20230;-84
2023/01/02 11:47:55;;;;;;;2.13;1.67;;;13.10;99.90;;;;;;5031844;28;20264;-84
2023/01/02 11:50:27;;;;;;;3.53;1.33;;;13.00;99.90;;;;;;5032259;28;20179;-83
2023/01/02 11:52:56;;;;;;;6.65;1.20;;;13.00;99.90;;;;;;5032918;28;20626;-85
2023/01/02 11:55:48;;;;;;;4.10;1.10;;;12.90;99.90;;;;;;5035628;28;20628;-88
2023/01/02 11:58:25;;;;;;;3.28;1.30;;;12.80;99.90;;;;;;5031026;28;20192;-85
2023/01/02 12:00:55;;;;;;;3.38;1.20;;;12.80;99.90;;;;;;5035623;28;20197;-83
2023/01/02 12:03:23;;;;;;;4.55;1.17;;;12.80;99.90;;;;;;5034439;28;20526;-83
2023/01/02 12:06:11;;;;;;;3.03;0.90;;;12.80;99.90;;;;;;5036759;28;20182;-87
2023/01/02 12:09:00;;;;;;;4.45;1.13;;;12.80;99.90;;;;;;5051920;28;20651;-82
2023/01/02 12:11:40;;;;;;;3.17;1.30;;;12.80;99.90;;;;;;5035297;28;20178;-83
2023/01/02 12:14:12;;;;;;;3.70;1.10;;;12.80;99.90;;;;;;5034961;28;20269;-82
2023/01/02 12:17:05;;;;;;;2.90;1.00;;;12.90;99.90;;;;;;5035352;28;20175;-88
2023/01/02 12:19:50;;;;;;;3.85;1.35;;;12.80;99.90;;;;;;5051718;28;20220;-83
2023/01/02 12:22:34;;;;;;;3.80;1.60;;;12.80;99.90;;;;;;5051558;28;20192;-83
2023/01/02 12:25:24;;;;;;;7.20;1.15;;;12.80;99.90;;;;;;5036787;28;20656;-84
2023/01/02 12:28:28;;;;;;;4.72;1.30;;;12.80;99.90;;;;;;5034862;28;20206;-84
2023/01/02 12:31:09;;;;;;;4.60;1.20;;;12.80;99.90;;;;;;5052023;28;20189;-84
2023/01/02 12:33:40;;;;;;;1.98;1.00;;;12.80;99.90;;;;;;5036067;28;20179;-94
2023/01/02 12:36:30;;;;;;;3.10;0.85;;;12.80;99.90;;;;;;5037008;28;20250;-85
2023/01/02 12:39:23;;;;;;;1.70;0.98;;;12.80;99.90;;;;;;5034689;28;20297;-85
2023/01/02 12:42:10;;;;;;;1.88;1.00;;;12.80;99.90;;;;;;5034883;28;20231;-89
2023/01/02 12:44:54;;;;;;;3.38;0.82;;;12.70;99.90;;;;;;5051421;28;20185;-84
2023/01/02 12:47:49;;;;;;;3.22;0.85;;;12.70;99.90;;;;;;5034132;28;20195;-86
2023/01/02 12:50:32;;;;;;;2.75;1.10;;;12.70;99.90;;;;;;5051742;28;20629;-85
2023/01/02 12:53:22;;;;;;;1.50;0.85;;;12.60;99.90;;;;;;5034470;28;20234;-84
2023/01/02 12:56:13;;;;;;;2.42;0.98;;;12.50;99.90;;;;;;5050948;28;20228;-86
2023/01/02 12:59:06;;;;;;;1.25;0.90;;;12.50;99.90;;;;;;5034420;28;20182;-83
2023/01/02 13:01:39;;;;;;;2.13;1.17;;;12.50;99.90;;;;;;5035633;28;20209;-82
2023/01/02 13:04:31;;;;;;;3.53;0.95;;;12.40;99.90;;;;;;5035150;28;20225;-84
2023/01/02 13:07:13;;;;;;;1.25;0.77;;;12.40;99.90;;;;;;5034961;28;20177;-84
2023/01/02 13:09:41;;;;;;;2.97;1.00;;;12.40;99.90;;;;;;5050831;28;20213;-87
2023/01/02 13:12:27;;;;;;;6.45;1.20;;;12.40;99.90;;;;;;5034050;28;20581;-82
2023/01/02 13:15:29;;;;;;;1.33;0.90;;;12.30;99.90;;;;;;5050672;28;20182;-82